Jhelum Weather



Jhelum's Current Weather

Temprature 12.34o overcast clouds

overcast clouds

Rain: 0 %

Min Temprature12.34o
Max Temprature12.34o
Humidity55
Wind Speed1.34 m/h
Sun Rise06:58:11
Sun Set16:59:10
Current Time: 12-Dec-2019 01:30:17
Lat/Lon: 32.94, 73.72




Jhelum's Geo Location



Jhelum's Weather Forecast

Time Overall Temp Min Temp Max Temp Humidity Wind Speed Rain
12-Dec-2019 (Thu)
02:00:00 overcast clouds 12.340 12.340 12.340 55 1.34 m/h 0 %
05:00:00 overcast clouds 11.290 11.290 11.290 58 1.27 m/h 0 %
08:00:00 overcast clouds 13.070 13.070 13.070 54 0.75 m/h 0 %
11:00:00 overcast clouds 17.290 17.290 17.290 37 2.22 m/h 0 %
14:00:00 overcast clouds 18.550 18.550 18.550 33 4.32 m/h 0 %
17:00:00 light rain 12.050 12.050 12.050 62 5.81 m/h 63 %
20:00:00 moderate rain 10.120 10.120 10.120 89 0.95 m/h 575 %
23:00:00 moderate rain 10.440 10.440 10.440 88 1.78 m/h 331 %
13-Dec-2019 (Fri)
02:00:00 moderate rain 10.540 10.540 10.540 92 0.69 m/h 394 %
05:00:00 light rain 11.130 11.130 11.130 88 0.96 m/h 81 %
08:00:00 overcast clouds 11.710 11.710 11.710 83 1.04 m/h 0 %
11:00:00 light rain 13.400 13.400 13.400 70 0.83 m/h 13 %
14:00:00 light rain 13.670 13.670 13.670 72 2.54 m/h 19 %
17:00:00 light rain 12.390 12.390 12.390 83 1.4 m/h 25 %
20:00:00 light rain 11.400 11.400 11.400 87 0.35 m/h 19 %
23:00:00 few clouds 10.140 10.140 10.140 89 0.21 m/h 0 %
14-Dec-2019 (Sat)
02:00:00 few clouds 9.610 9.610 9.610 90 0.95 m/h 0 %
05:00:00 clear sky 8.930 8.930 8.930 91 0.16 m/h 0 %
08:00:00 clear sky 10.510 10.510 10.510 86 0.93 m/h 0 %
11:00:00 scattered clouds 14.060 14.060 14.060 69 2.64 m/h 0 %
14:00:00 scattered clouds 15.450 15.450 15.450 64 2.26 m/h 0 %
17:00:00 scattered clouds 12.840 12.840 12.840 74 0.52 m/h 0 %
20:00:00 light rain 11.520 11.520 11.520 80 0.6 m/h 56 %
23:00:00 clear sky 10.570 10.570 10.570 84 0.6 m/h 0 %
15-Dec-2019 (Sun)
02:00:00 clear sky 9.840 9.840 9.840 83 0.91 m/h 0 %
05:00:00 clear sky 9.550 9.550 9.550 78 1.66 m/h 0 %
08:00:00 clear sky 10.350 10.350 10.350 66 1.91 m/h 0 %
11:00:00 clear sky 16.200 16.200 16.200 45 3.07 m/h 0 %
14:00:00 clear sky 18.330 18.330 18.330 36 2.06 m/h 0 %
17:00:00 clear sky 14.670 14.670 14.670 47 1.12 m/h 0 %
20:00:00 clear sky 12.640 12.640 12.640 56 1.95 m/h 0 %
23:00:00 clear sky 11.340 11.340 11.340 58 1.46 m/h 0 %
16-Dec-2019 (Mon)
02:00:00 clear sky 10.470 10.470 10.470 58 1.48 m/h 0 %
05:00:00 clear sky 9.570 9.570 9.570 53 1.6 m/h 0 %
08:00:00 clear sky 10.450 10.450 10.450 46 1.54 m/h 0 %
11:00:00 clear sky 15.980 15.980 15.980 31 2.28 m/h 0 %
14:00:00 clear sky 18.670 18.670 18.670 27 2.21 m/h 0 %
17:00:00 clear sky 15.300 15.300 15.300 38 3.47 m/h 0 %
20:00:00 clear sky 12.540 12.540 12.540 40 2.96 m/h 0 %
23:00:00 clear sky 11.150 11.150 11.150 39 2.22 m/h 0 %

Famous Cities (61)